Tiempo atmosférico en la estación meteorológica de Burgos Aeropuerto, Burgos (891 m.)

Fecha
DESCASC
Temp. máxima en grados centígrados (hora)
DESCASC
Temp. mínima en grados centígrados (hora)
DESCASC
Temp. media en grados centígrados
DESCASC
Racha de viento máxima en m/sg (hora)
DESCASC
Velocidad máxima media en intervalos de 10 minutos(hora)
DESCASC
Precipitaciones diarias en mm
DESCASC
Precipitaciones de 00:00 a 06:00 en mm
DESCASC
Precipitaciones de 06:00 a 12:00 en mm
DESCASC
Precipitaciones de 12:00 a 18:00 en mm
DESCASC
Precipitaciones de 18:00 a 24:00 en mm
DESCASC
17-08-2017 33.8 (18:00) 11.4 (07:10) 22.6 12.78 (20:00) 9.72 (20:00) 0 0 0 0 0
16-08-2017 30.8 (17:20) 12.6 (07:20) 21.7 10.83 (19:30) 8.33 (19:50) 0 0 0 0 0
15-08-2017 32 (17:50) 15.6 (00:00) 23.8 13.61 (19:00) 10.56 (19:10) 0 0 0 0 0
14-08-2017 34.1 (17:10) 10.5 (07:30) 22.3 13.89 (16:10) 9.72 (21:20) 0 0 0 0 0
13-08-2017 30.5 (16:20) 11.2 (00:00) 20.8 9.72 (17:10) 6.39 (20:30) 0 0 0 0 0
12-08-2017 29.1 (17:00) 6.9 (00:00) 18 10.83 (17:50) 7.5 (20:10) 0 0 0 0 0
11-08-2017 23.6 (17:50) 7.3 (00:00) 15.5 11.67 (16:50) 7.78 (20:20) 0 0 0 0 0
10-08-2017 19.6 (15:50) 6.5 (00:00) 13.1 12.5 (12:10) 8.61 (18:50) 0 0 0 0 0
09-08-2017 18.7 (15:10) 8.2 (00:00) 13.5 14.44 (16:40) 9.72 (19:30) 0 0 0 0 0
08-08-2017 22.9 (17:10) 11.1 (00:00) 17 12.78 (00:10) 8.61 (19:20) 0 0 0 0 0
07-08-2017 31.7 (15:10) 12.9 (00:00) 22.3 11.94 (21:20) 7.22 (22:50) 0 0 0 0 0
06-08-2017 24.2 (17:00) 12.2 (00:00) 18.2 15.56 (15:20) 10.83 (18:00) 0 0 0 0 0
05-08-2017 25 (14:50) 14.2 (00:00) 19.6 15.83 (22:30) 11.67 (22:10) 0 0 0 0 0
04-08-2017 34.1 (18:10) 13.4 (00:00) 23.7 11.39 (23:40) 8.33 (23:40) 0 0 0 0 0
03-08-2017 33 (17:20) 11.3 (00:00) 22.2 10.83 (17:40) 7.22 (15:40) 0 0 0 0 0
02-08-2017 32.7 (18:00) 11.5 (00:00) 22.1 9.44 (14:50) 5.56 (14:40) 0 0 0 0 0
01-08-2017 29.4 (16:50) 12.8 (00:00) 21.1 10.83 (19:50) 8.06 (19:40) 0 0 0 0 0
31-07-2017 31 (16:40) 12.6 (00:00) 21.8 13.33 (17:00) 8.61 (00:50) 0 0 0 0 0
30-07-2017 31.8 (17:30) 15 (00:00) 23.4 14.72 (16:20) 10.56 (17:20) 0 0 0 0 0
29-07-2017 32.6 (18:00) 11.9 (00:00) 22.2 13.33 (13:50) 8.33 (13:40) 0 0 0 0 0
28-07-2017 32.6 (18:20) 12.9 (00:00) 22.7 12.5 (01:30) 7.78 (00:40) 0 0 0 0 0
27-07-2017 33.3 (17:40) 10.8 (00:00) 22 11.67 (20:50) 7.78 (21:00) 0 0 0 0 0
26-07-2017 29.9 (17:30) 8.3 (00:00) 19.1 11.94 (17:40) 6.67 (21:00) 0 0 0 0 0
25-07-2017 22.6 (16:20) 11.5 (00:00) 17.1 15 (15:40) 7.78 (14:00) 0 0 0 0 0
24-07-2017 24.2 (13:30) 12.7 (00:00) 18.5 14.72 (21:00) 9.17 (18:40) 0 0 0 0 0
23-07-2017 28.5 (16:50) 11.8 (00:00) 20.2 11.67 (11:10) 7.78 (00:50) 0 0 0 0 0
22-07-2017 28.9 (17:30) 9.7 (00:00) 19.3 12.5 (14:10) 8.61 (20:10) 0 0 0 0 0
21-07-2017 28 (18:00) 11.3 (00:00) 19.7 12.22 (00:20) 8.33 (00:20) 0 0 0 0 0
20-07-2017 23.1 (16:20) 12.6 (00:00) 17.9 15 (17:20) 10.28 (19:20) 0 0 0 0 0
19-07-2017 29.4 (15:20) 15.8 (00:00) 22.6 11.94 (21:10) 8.33 (21:10) 0 0 0 0 0

Gráficas

Temp. máximas Temp. mínimas Temp. medias Precipitaciones Rachas de viento máximas Velocidades máximas media en intervalos de 10 minutos

Datos horarios

Fecha y hora oficial Temperatura (ºC) Velocidad del viento (km/h) Dirección del viento Racha (km/h) Dirección de racha Precipitación (mm) Presión (hPa) Tendencia (hPa) Humedad (%)